createdAt,value
2023-05-08T00:01:45.842Z,6.18
2023-05-08T00:04:13.807Z,6.85
2023-05-08T00:06:41.452Z,6.78
2023-05-08T00:09:08.904Z,5.85
2023-05-08T00:11:36.363Z,6.25
2023-05-08T00:14:04.026Z,5.35
2023-05-08T00:16:32.263Z,6.03
2023-05-08T00:19:00.658Z,5.68
2023-05-08T00:21:28.189Z,6.80
2023-05-08T00:23:55.763Z,5.38
2023-05-08T00:26:23.336Z,8.77
2023-05-08T00:28:50.971Z,6.43
2023-05-08T00:31:18.650Z,6.10
2023-05-08T00:33:46.206Z,5.97
2023-05-08T00:36:15.804Z,5.20
2023-05-08T00:38:43.361Z,7.03
2023-05-08T00:41:10.846Z,6.40
2023-05-08T00:43:40.122Z,6.72
2023-05-08T00:46:09.915Z,5.35
2023-05-08T00:48:39.607Z,6.15
2023-05-08T00:51:09.489Z,6.13
2023-05-08T00:53:39.873Z,5.85
2023-05-08T00:56:13.541Z,6.15
2023-05-08T00:58:42.172Z,6.53
2023-05-08T01:01:10.958Z,5.82
2023-05-08T01:03:38.844Z,5.35
2023-05-08T01:06:07.039Z,5.40
2023-05-08T01:08:35.129Z,4.22
2023-05-08T01:11:26.006Z,4.30
2023-05-08T01:14:05.993Z,4.22
2023-05-08T01:16:49.802Z,4.70
2023-05-08T01:19:46.524Z,5.72
2023-05-08T01:22:51.105Z,4.35
2023-05-08T01:25:46.056Z,4.82
2023-05-08T01:28:35.386Z,4.43
2023-05-08T01:31:15.385Z,4.70
2023-05-08T01:34:01.944Z,5.45
2023-05-08T01:36:51.743Z,4.40
2023-05-08T01:39:48.473Z,4.22
2023-05-08T01:42:23.458Z,6.00
2023-05-08T01:45:06.134Z,3.75
2023-05-08T01:47:38.123Z,3.55
2023-05-08T01:50:45.097Z,5.70
2023-05-08T01:53:34.833Z,5.35
2023-05-08T01:56:12.085Z,4.43
2023-05-08T01:58:41.881Z,6.15
2023-05-08T02:01:12.830Z,4.93
2023-05-08T02:03:42.818Z,4.25
2023-05-08T02:06:12.990Z,4.80
2023-05-08T02:08:43.350Z,5.40
2023-05-08T02:11:12.721Z,5.43
2023-05-08T02:13:41.460Z,5.78
2023-05-08T02:16:11.633Z,5.45
2023-05-08T02:18:43.109Z,5.10
2023-05-08T02:21:12.824Z,4.95
2023-05-08T02:23:43.818Z,4.53
2023-05-08T02:26:14.017Z,5.15
2023-05-08T02:28:42.658Z,5.22
2023-05-08T02:31:12.191Z,5.43
2023-05-08T02:33:42.271Z,5.80
2023-05-08T02:36:13.354Z,5.10
2023-05-08T02:38:44.247Z,7.22
2023-05-08T02:41:13.395Z,5.72
2023-05-08T02:43:41.534Z,6.25
2023-05-08T02:46:26.417Z,5.57
2023-05-08T02:49:07.224Z,5.20
2023-05-08T02:51:56.406Z,6.57
2023-05-08T02:54:35.770Z,6.18
2023-05-08T02:57:21.962Z,6.25
2023-05-08T03:00:04.335Z,7.38
2023-05-08T03:02:39.419Z,6.72
2023-05-08T03:05:15.912Z,6.40
2023-05-08T03:07:45.247Z,6.30
2023-05-08T03:10:16.162Z,6.75
2023-05-08T03:12:47.707Z,6.88
2023-05-08T03:15:33.247Z,6.68
2023-05-08T03:18:06.785Z,6.93
2023-05-08T03:20:38.893Z,7.45
2023-05-08T03:23:10.354Z,8.20
2023-05-08T03:25:41.204Z,8.40
2023-05-08T03:28:10.610Z,9.07
2023-05-08T03:30:41.636Z,10.48
2023-05-08T03:33:13.251Z,9.25
2023-05-08T03:35:41.521Z,9.80
2023-05-08T03:38:10.851Z,10.55
2023-05-08T03:40:44.859Z,10.13
2023-05-08T03:43:12.997Z,10.48
2023-05-08T03:45:41.334Z,10.85
2023-05-08T03:48:09.976Z,11.52
2023-05-08T03:50:38.998Z,10.27
2023-05-08T03:53:09.641Z,10.93
2023-05-08T03:55:37.871Z,11.75
2023-05-08T03:58:34.088Z,12.40
2023-05-08T04:01:11.019Z,9.93
2023-05-08T04:03:53.837Z,12.95
2023-05-08T04:06:30.777Z,10.85
2023-05-08T04:09:28.257Z,10.35
2023-05-08T04:12:16.091Z,8.60
2023-05-08T04:14:54.212Z,9.40
2023-05-08T04:17:41.409Z,8.75
2023-05-08T04:20:14.753Z,9.63
2023-05-08T04:22:44.513Z,8.48
2023-05-08T04:25:15.389Z,9.23
2023-05-08T04:27:44.312Z,8.02
2023-05-08T04:30:13.483Z,8.25
2023-05-08T04:32:44.251Z,9.38
2023-05-08T04:35:14.660Z,7.72
2023-05-08T04:37:43.795Z,7.10
2023-05-08T04:40:12.021Z,7.43
2023-05-08T04:42:43.059Z,7.47
2023-05-08T04:45:11.918Z,9.63
2023-05-08T04:47:39.823Z,8.43
2023-05-08T04:50:07.787Z,7.07
2023-05-08T04:52:36.369Z,8.02
2023-05-08T04:55:04.114Z,8.98
2023-05-08T04:57:35.119Z,7.90
2023-05-08T05:00:03.356Z,9.27
2023-05-08T05:02:32.370Z,9.82
2023-05-08T05:05:01.364Z,6.82
2023-05-08T05:07:30.028Z,7.75
2023-05-08T05:09:58.071Z,6.80
2023-05-08T05:12:25.709Z,8.35
2023-05-08T05:14:53.410Z,7.03
2023-05-08T05:17:21.030Z,6.82
2023-05-08T05:19:49.192Z,5.93
2023-05-08T05:22:17.811Z,7.43
2023-05-08T05:24:46.295Z,6.68
2023-05-08T05:27:14.093Z,5.65
2023-05-08T05:29:41.611Z,8.40
2023-05-08T05:32:10.299Z,5.50
2023-05-08T05:34:38.376Z,5.60
2023-05-08T05:37:06.928Z,5.00
2023-05-08T05:39:35.961Z,6.60
2023-05-08T05:42:03.572Z,6.40
2023-05-08T05:44:31.147Z,6.28
2023-05-08T05:46:58.691Z,4.78
2023-05-08T05:49:26.347Z,5.13
2023-05-08T05:51:53.940Z,4.93
2023-05-08T05:54:21.626Z,5.22
2023-05-08T05:56:49.071Z,5.57
2023-05-08T05:59:16.635Z,5.63
2023-05-08T06:01:44.452Z,5.28
2023-05-08T06:04:12.181Z,5.63
2023-05-08T06:06:40.054Z,4.75
2023-05-08T06:09:07.552Z,5.20
2023-05-08T06:11:35.141Z,4.72
2023-05-08T06:14:02.790Z,5.72
2023-05-08T06:16:30.786Z,3.95
2023-05-08T06:18:58.290Z,4.45
2023-05-08T06:21:26.802Z,4.28
2023-05-08T06:23:54.738Z,4.68
2023-05-08T06:26:23.639Z,4.30
2023-05-08T06:28:51.175Z,3.85
2023-05-08T06:31:19.241Z,4.45
2023-05-08T06:33:46.801Z,4.85
2023-05-08T06:36:14.254Z,3.97
2023-05-08T06:38:41.734Z,4.40
2023-05-08T06:41:09.550Z,4.03
2023-05-08T06:43:37.043Z,4.40
2023-05-08T06:46:07.155Z,3.55
2023-05-08T06:48:34.648Z,3.90
2023-05-08T06:51:02.704Z,4.47
2023-05-08T06:53:30.697Z,2.90
2023-05-08T06:55:58.870Z,4.63
2023-05-08T06:58:26.552Z,3.63
2023-05-08T07:00:53.965Z,3.28
2023-05-08T07:03:21.651Z,3.67
2023-05-08T07:05:49.122Z,3.45
2023-05-08T07:08:17.859Z,3.33
2023-05-08T07:10:45.665Z,4.05
2023-05-08T07:13:13.260Z,4.10
2023-05-08T07:15:41.187Z,4.22
2023-05-08T07:18:08.802Z,3.40
2023-05-08T07:20:36.348Z,3.83
2023-05-08T07:23:03.946Z,3.65
2023-05-08T07:25:31.522Z,3.22
2023-05-08T07:28:01.118Z,3.15
2023-05-08T07:30:29.114Z,3.25
2023-05-08T07:32:56.633Z,3.78
2023-05-08T07:35:24.215Z,4.20
2023-05-08T07:37:51.671Z,3.45
2023-05-08T07:40:19.151Z,3.40
2023-05-08T07:42:46.634Z,3.38
2023-05-08T07:45:14.608Z,2.88
2023-05-08T07:47:57.434Z,2.70
2023-05-08T07:50:26.581Z,3.50
2023-05-08T07:52:54.425Z,3.33
2023-05-08T07:55:21.962Z,4.35
2023-05-08T07:57:49.421Z,3.50
2023-05-08T08:00:17.447Z,4.20
2023-05-08T08:02:45.589Z,4.35
2023-05-08T08:05:13.388Z,4.10
2023-05-08T08:07:41.230Z,3.92
2023-05-08T08:10:09.131Z,3.83
2023-05-08T08:12:36.774Z,3.70
2023-05-08T08:15:04.705Z,3.40
2023-05-08T08:17:32.217Z,3.63
2023-05-08T08:19:59.793Z,4.15
2023-05-08T08:22:27.397Z,3.53
2023-05-08T08:24:57.901Z,4.32
2023-05-08T08:27:25.397Z,3.63
2023-05-08T08:30:04.510Z,4.28
2023-05-08T08:32:36.137Z,3.80
2023-05-08T08:35:03.800Z,3.70
2023-05-08T08:37:31.255Z,3.33
2023-05-08T08:39:59.774Z,3.40
2023-05-08T08:42:27.339Z,3.45
2023-05-08T08:44:56.072Z,3.72
2023-05-08T08:47:34.843Z,3.25
2023-05-08T08:50:03.969Z,3.28
2023-05-08T08:52:54.819Z,3.03
2023-05-08T08:55:23.543Z,3.40
2023-05-08T08:58:01.213Z,3.40
2023-05-08T09:00:32.622Z,2.50
2023-05-08T09:03:00.723Z,2.60
2023-05-08T09:05:28.676Z,2.78
2023-05-08T09:07:56.593Z,2.88
2023-05-08T09:10:27.070Z,3.28
2023-05-08T09:12:54.738Z,2.97
2023-05-08T09:15:22.286Z,3.30
2023-05-08T09:17:50.024Z,4.28
2023-05-08T09:20:17.754Z,3.97
2023-05-08T09:22:46.113Z,3.65
2023-05-08T09:25:13.966Z,4.03
2023-05-08T09:27:41.642Z,4.47
2023-05-08T09:30:11.200Z,4.30
2023-05-08T09:32:41.609Z,4.07
2023-05-08T09:35:10.494Z,4.13
2023-05-08T09:37:43.108Z,4.38
2023-05-08T09:40:21.822Z,4.95
2023-05-08T09:42:50.832Z,5.80
2023-05-08T09:45:32.430Z,5.10
2023-05-08T09:48:00.172Z,6.03
2023-05-08T09:50:27.847Z,5.25
2023-05-08T09:52:55.813Z,5.13
2023-05-08T09:55:23.278Z,5.97
2023-05-08T09:57:59.081Z,5.20
2023-05-08T10:00:28.091Z,5.70
2023-05-08T10:03:03.181Z,4.68
2023-05-08T10:05:36.541Z,5.80
2023-05-08T10:08:29.918Z,5.28
2023-05-08T10:11:21.393Z,5.50
2023-05-08T10:13:48.821Z,5.88
2023-05-08T10:16:18.814Z,5.50
2023-05-08T10:18:50.896Z,5.10
2023-05-08T10:21:20.382Z,5.20
2023-05-08T10:23:50.684Z,5.25
2023-05-08T10:26:27.451Z,4.80
2023-05-08T10:29:01.996Z,4.50
2023-05-08T10:31:34.129Z,4.47
2023-05-08T10:34:03.607Z,4.45
2023-05-08T10:36:32.513Z,4.45
2023-05-08T10:39:00.071Z,4.75
2023-05-08T10:41:28.290Z,4.53
2023-05-08T10:43:56.543Z,4.03
2023-05-08T10:46:43.999Z,4.18
2023-05-08T10:49:34.843Z,4.88
2023-05-08T10:52:21.311Z,4.15
2023-05-08T10:57:32.338Z,3.55
2023-05-08T10:59:59.895Z,3.30
2023-05-08T11:02:32.921Z,3.47
2023-05-08T11:05:16.832Z,3.65
2023-05-08T11:08:14.272Z,3.97
2023-05-08T11:10:43.544Z,4.35
2023-05-08T11:13:12.453Z,3.67
2023-05-08T11:15:41.375Z,3.10
2023-05-08T11:18:16.256Z,3.05
2023-05-08T11:21:01.008Z,3.30
2023-05-08T11:23:30.160Z,3.00
2023-05-08T11:26:01.396Z,3.13
2023-05-08T11:28:33.286Z,3.67
2023-05-08T11:31:06.835Z,3.38
2023-05-08T11:33:41.307Z,3.55
2023-05-08T11:36:24.637Z,3.28
2023-05-08T11:39:18.446Z,2.72
2023-05-08T11:41:47.954Z,3.78
2023-05-08T11:44:23.587Z,3.53
2023-05-08T11:46:53.849Z,3.33
2023-05-08T11:49:29.171Z,4.07
2023-05-08T11:51:59.182Z,3.50
2023-05-08T11:54:30.520Z,3.08
2023-05-08T11:56:59.757Z,3.85
2023-05-08T11:59:27.394Z,4.45
2023-05-08T12:04:25.936Z,3.13
2023-05-08T12:06:58.724Z,3.90
2023-05-08T12:09:26.344Z,3.45
2023-05-08T12:11:58.052Z,2.60
2023-05-08T12:14:25.843Z,3.90
2023-05-08T12:16:53.344Z,3.95
2023-05-08T12:19:20.928Z,2.75
2023-05-08T12:21:49.070Z,3.30
2023-05-08T12:24:23.540Z,2.92
2023-05-08T12:26:56.131Z,3.70
2023-05-08T12:29:24.141Z,3.42
2023-05-08T12:31:53.163Z,3.53
2023-05-08T12:34:21.512Z,4.13
2023-05-08T12:36:49.008Z,3.75
2023-05-08T12:39:17.993Z,3.55
2023-05-08T12:41:49.516Z,4.13
2023-05-08T12:44:20.906Z,4.40
2023-05-08T12:46:51.426Z,5.07
2023-05-08T12:49:29.311Z,3.25
2023-05-08T12:52:07.070Z,5.15
2023-05-08T12:54:39.013Z,4.18
2023-05-08T12:57:11.009Z,3.72
2023-05-08T12:59:38.996Z,3.88
2023-05-08T13:02:21.028Z,3.28
2023-05-08T13:04:48.754Z,3.90
2023-05-08T13:07:16.378Z,3.45
2023-05-08T13:09:57.868Z,4.53
2023-05-08T13:12:25.703Z,3.70
2023-05-08T13:14:53.162Z,4.47
2023-05-08T13:17:20.750Z,3.40
2023-05-08T13:19:48.283Z,3.65
2023-05-08T13:22:15.739Z,3.67
2023-05-08T13:24:43.194Z,3.88
2023-05-08T13:27:10.802Z,4.00
2023-05-08T13:29:38.214Z,5.63
2023-05-08T13:32:05.930Z,5.13
2023-05-08T13:34:33.472Z,6.13
2023-05-08T13:37:01.498Z,5.30
2023-05-08T13:39:31.112Z,5.70
2023-05-08T13:41:58.869Z,4.82
2023-05-08T13:44:26.442Z,4.80
2023-05-08T13:46:53.986Z,5.80
2023-05-08T13:49:24.230Z,5.82
2023-05-08T13:51:56.658Z,6.78
2023-05-08T13:54:24.884Z,6.45
2023-05-08T13:56:53.949Z,4.90
2023-05-08T13:59:21.507Z,5.75
2023-05-08T14:01:48.922Z,5.82
2023-05-08T14:04:16.459Z,5.25
2023-05-08T14:06:43.883Z,5.93
2023-05-08T14:09:11.621Z,6.10
2023-05-08T14:11:39.099Z,5.80
2023-05-08T14:14:06.662Z,6.50
2023-05-08T14:16:34.351Z,6.80
2023-05-08T14:19:01.929Z,5.65
2023-05-08T14:21:29.445Z,7.55
2023-05-08T14:23:57.184Z,5.60
2023-05-08T14:26:24.659Z,4.80
2023-05-08T14:28:52.130Z,5.95
2023-05-08T14:31:19.761Z,6.10
2023-05-08T14:33:47.242Z,5.50
2023-05-08T14:36:14.705Z,5.95
2023-05-08T14:38:42.206Z,6.32
2023-05-08T14:41:09.756Z,5.90
2023-05-08T14:43:37.286Z,5.22
2023-05-08T14:46:04.964Z,4.75
2023-05-08T14:48:32.443Z,4.80
2023-05-08T14:51:00.104Z,4.38
2023-05-08T14:53:27.889Z,5.60
2023-05-08T14:55:55.764Z,5.72
2023-05-08T14:58:23.409Z,6.55
2023-05-08T15:00:51.022Z,7.03
2023-05-08T15:03:18.770Z,5.05
2023-05-08T15:05:47.301Z,6.00
2023-05-08T15:08:14.935Z,6.60
2023-05-08T15:10:43.015Z,5.10
2023-05-08T15:13:10.529Z,5.68
2023-05-08T15:15:38.123Z,5.18
2023-05-08T15:18:05.728Z,5.65
2023-05-08T15:20:33.270Z,4.93
2023-05-08T15:23:00.817Z,5.15
2023-05-08T15:25:28.369Z,5.60
2023-05-08T15:27:56.791Z,5.00
2023-05-08T15:30:25.310Z,4.43
2023-05-08T15:32:52.848Z,4.90
2023-05-08T15:35:20.459Z,4.43
2023-05-08T15:37:47.933Z,4.30
2023-05-08T15:40:15.880Z,4.32
2023-05-08T15:42:43.354Z,4.90
2023-05-08T15:45:10.858Z,4.78
2023-05-08T15:47:38.390Z,4.18
2023-05-08T15:50:06.431Z,4.25
2023-05-08T15:52:33.858Z,3.50
2023-05-08T15:55:01.438Z,3.22
2023-05-08T15:57:28.932Z,3.35
2023-05-08T15:59:56.421Z,3.65
2023-05-08T16:02:23.950Z,2.80
2023-05-08T16:04:51.604Z,3.03
2023-05-08T16:07:19.021Z,3.95
2023-05-08T16:09:46.663Z,3.58
2023-05-08T16:12:14.231Z,2.83
2023-05-08T16:14:41.886Z,3.58
2023-05-08T16:17:09.502Z,3.58
2023-05-08T16:19:38.469Z,3.53
2023-05-08T16:22:06.954Z,3.65
2023-05-08T16:24:34.508Z,4.55
2023-05-08T16:27:02.044Z,4.60
2023-05-08T16:29:29.500Z,4.28
2023-05-08T16:31:57.211Z,4.20
2023-05-08T16:34:24.721Z,3.50
2023-05-08T16:36:52.220Z,3.95
2023-05-08T16:39:19.761Z,3.75
2023-05-08T16:41:47.219Z,3.85
2023-05-08T16:44:15.197Z,4.50
2023-05-08T16:46:42.774Z,3.47
2023-05-08T16:49:10.387Z,4.03
2023-05-08T16:51:37.809Z,3.38
2023-05-08T16:54:05.516Z,3.05
2023-05-08T16:56:32.983Z,3.03
2023-05-08T16:59:02.033Z,3.90
2023-05-08T17:01:29.661Z,3.15
2023-05-08T17:03:57.274Z,3.10
2023-05-08T17:06:24.824Z,3.97
2023-05-08T17:08:52.407Z,3.90
2023-05-08T17:11:19.919Z,4.22
2023-05-08T17:13:48.121Z,4.15
2023-05-08T17:16:17.731Z,4.57
2023-05-08T17:18:47.381Z,6.18
2023-05-08T17:21:14.798Z,4.47
2023-05-08T17:23:42.414Z,4.93
2023-05-08T17:26:09.974Z,3.88
2023-05-08T17:28:37.581Z,3.80
2023-05-08T17:31:05.285Z,3.38
2023-05-08T17:33:33.557Z,3.63
2023-05-08T17:36:02.108Z,3.67
2023-05-08T17:38:29.622Z,3.45
2023-05-08T17:40:57.218Z,4.35
2023-05-08T17:43:25.813Z,3.70
2023-05-08T17:45:53.237Z,4.38
2023-05-08T17:48:20.954Z,3.13
2023-05-08T17:50:48.382Z,3.17
2023-05-08T17:53:16.002Z,4.10
2023-05-08T17:55:43.495Z,3.45
2023-05-08T17:58:11.023Z,3.30
2023-05-08T18:00:38.798Z,2.92
2023-05-08T18:03:06.497Z,4.22
2023-05-08T18:05:34.027Z,4.75
2023-05-08T18:08:01.521Z,3.33
2023-05-08T18:10:29.020Z,4.43
2023-05-08T18:12:56.595Z,3.63
2023-05-08T18:15:24.195Z,3.33
2023-05-08T18:17:53.697Z,3.85
2023-05-08T18:20:21.462Z,3.92
2023-05-08T18:22:49.070Z,3.40
2023-05-08T18:25:17.515Z,4.38
2023-05-08T18:27:47.347Z,3.90
2023-05-08T18:30:15.151Z,3.72
2023-05-08T18:32:43.119Z,2.97
2023-05-08T18:35:10.814Z,3.08
2023-05-08T18:37:38.229Z,3.72
2023-05-08T18:40:06.511Z,3.10
2023-05-08T18:42:33.988Z,4.13
2023-05-08T18:45:05.702Z,3.80
2023-05-08T18:47:33.367Z,3.70
2023-05-08T18:50:01.025Z,3.40
2023-05-08T18:52:28.658Z,4.32
2023-05-08T18:54:56.093Z,4.03
2023-05-08T18:57:23.647Z,3.60
2023-05-08T18:59:51.161Z,2.90
2023-05-08T19:02:18.713Z,3.20
2023-05-08T19:04:46.526Z,3.90
2023-05-08T19:07:14.047Z,3.50
2023-05-08T19:09:41.499Z,3.85
2023-05-08T19:12:08.956Z,3.28
2023-05-08T19:14:36.440Z,3.03
2023-05-08T19:17:03.977Z,2.50
2023-05-08T19:19:31.630Z,2.55
2023-05-08T19:21:59.094Z,2.67
2023-05-08T19:24:29.922Z,2.97
2023-05-08T19:26:57.697Z,3.13
2023-05-08T19:29:25.330Z,3.70
2023-05-08T19:31:52.949Z,3.10
2023-05-08T19:34:20.573Z,3.97
2023-05-08T19:36:48.124Z,3.70
2023-05-08T19:39:15.695Z,3.97
2023-05-08T19:41:43.961Z,3.63
2023-05-08T19:44:11.635Z,3.53
2023-05-08T19:46:39.814Z,3.00
2023-05-08T19:49:07.569Z,3.63
2023-05-08T19:51:35.071Z,2.90
2023-05-08T19:54:02.683Z,3.00
2023-05-08T19:56:30.176Z,3.53
2023-05-08T19:58:57.599Z,3.58
2023-05-08T20:01:25.252Z,2.90
2023-05-08T20:03:52.857Z,2.63
2023-05-08T20:06:20.576Z,2.92
2023-05-08T20:08:48.030Z,3.00
2023-05-08T20:11:15.466Z,2.70
2023-05-08T20:13:42.939Z,2.50
2023-05-08T20:16:10.534Z,2.72
2023-05-08T20:18:38.022Z,2.72
2023-05-08T20:21:05.632Z,2.88
2023-05-08T20:23:33.140Z,2.97
2023-05-08T20:26:00.734Z,2.70
2023-05-08T20:28:28.404Z,3.40
2023-05-08T20:30:56.008Z,3.53
2023-05-08T20:33:23.511Z,3.17
2023-05-08T20:35:50.996Z,2.88
2023-05-08T20:38:18.864Z,3.35
2023-05-08T20:40:46.410Z,2.88
2023-05-08T20:43:16.754Z,3.40
2023-05-08T20:45:44.303Z,4.03
2023-05-08T20:48:11.907Z,3.25
2023-05-08T20:50:39.407Z,3.15
2023-05-08T20:53:06.861Z,3.22
2023-05-08T20:55:34.410Z,3.10
2023-05-08T20:58:03.606Z,2.60
2023-05-08T21:00:31.252Z,3.10
2023-05-08T21:02:58.835Z,2.92
2023-05-08T21:05:26.729Z,3.08
2023-05-08T21:08:00.183Z,4.18
2023-05-08T21:10:30.639Z,3.00
2023-05-08T21:12:58.244Z,2.72
2023-05-08T21:15:25.840Z,3.95
2023-05-08T21:17:54.278Z,3.45
2023-05-08T21:20:21.785Z,3.08
2023-05-08T21:22:49.365Z,2.67
2023-05-08T21:25:17.402Z,4.18
2023-05-08T21:27:44.995Z,2.45
2023-05-08T21:30:15.603Z,3.17
2023-05-08T21:32:44.323Z,3.60
2023-05-08T21:35:12.744Z,2.78
2023-05-08T21:37:40.538Z,2.50
2023-05-08T21:40:09.502Z,3.17
2023-05-08T21:42:37.023Z,2.90
2023-05-08T21:45:04.935Z,2.88
2023-05-08T21:47:32.454Z,2.60
2023-05-08T21:49:59.964Z,2.70
2023-05-08T21:52:27.553Z,2.50
2023-05-08T21:54:54.990Z,2.47
2023-05-08T21:57:22.495Z,2.83
2023-05-08T21:59:50.439Z,3.00
2023-05-08T22:02:19.161Z,2.65
2023-05-08T22:04:47.046Z,2.10
2023-05-08T22:07:14.633Z,2.65
2023-05-08T22:09:42.081Z,2.47
2023-05-08T22:12:09.821Z,2.35
2023-05-08T22:14:37.515Z,3.38
2023-05-08T22:17:05.061Z,2.17
2023-05-08T22:19:32.533Z,2.60
2023-05-08T22:22:00.074Z,2.17
2023-05-08T22:24:27.654Z,1.63
2023-05-08T22:26:55.335Z,1.75
2023-05-08T22:29:22.754Z,1.50
2023-05-08T22:31:50.542Z,1.92
2023-05-08T22:34:17.981Z,1.50
2023-05-08T22:36:45.676Z,1.38
2023-05-08T22:39:13.296Z,1.50
2023-05-08T22:41:40.926Z,1.60
2023-05-08T22:44:08.598Z,1.30
2023-05-08T22:46:36.931Z,1.23
2023-05-08T22:49:04.700Z,1.20
2023-05-08T22:51:32.721Z,1.20
2023-05-08T22:54:00.197Z,1.08
2023-05-08T22:56:27.807Z,1.20
2023-05-08T22:58:55.320Z,1.00
2023-05-08T23:01:22.931Z,1.30
2023-05-08T23:03:56.663Z,1.02
2023-05-08T23:06:24.337Z,0.98
2023-05-08T23:08:51.881Z,0.80
2023-05-08T23:11:19.409Z,1.00
2023-05-08T23:13:47.037Z,0.80
2023-05-08T23:16:14.540Z,0.55
2023-05-08T23:18:42.130Z,0.70
2023-05-08T23:21:09.628Z,0.90
2023-05-08T23:23:37.371Z,0.88
2023-05-08T23:26:05.257Z,0.65
2023-05-08T23:28:36.423Z,0.80
2023-05-08T23:31:04.501Z,0.80
2023-05-08T23:33:32.209Z,0.65
2023-05-08T23:35:59.963Z,0.70
2023-05-08T23:38:27.482Z,0.90
2023-05-08T23:40:55.032Z,1.00
2023-05-08T23:43:22.428Z,0.90
2023-05-08T23:45:49.989Z,0.80
2023-05-08T23:48:17.542Z,0.90
2023-05-08T23:50:45.182Z,0.90
2023-05-08T23:53:13.642Z,1.00
2023-05-08T23:55:41.377Z,1.00
2023-05-08T23:58:08.899Z,1.15
